Time;durP1;ratioP1;P1;durP2;ratioP2;P2;SDS_P1;SDS_P2;PMS_P1;PMS_P2;Temp;Humidity;BMP_temperature;BMP_pressure;BME280_temperature;BME280_humidity;BME280_pressure;Samples;Min_cycle;Max_cycle;Signal;HPM_P1;HPM_P2
2023/09/16 00:03:17;;;;;;;8.75;8.02;;;;;;;;;;10453767;27;20067;-66
2023/09/16 00:08:15;;;;;;;11.77;8.90;;;;;;;;;;10433750;27;20086;-66
2023/09/16 00:13:14;;;;;;;10.05;9.18;;;;;;;;;;10455492;27;20066;-67
2023/09/16 00:18:13;;;;;;;11.98;9.05;;;;;;;;;;10452571;27;20097;-67
2023/09/16 00:23:12;;;;;;;11.52;9.93;;;;;;;;;;10453409;27;20514;-66
2023/09/16 00:28:10;;;;;;;10.60;9.45;;;;;;;;;;10452419;27;20117;-66
2023/09/16 00:33:09;;;;;;;10.15;9.23;;;;;;;;;;10454167;27;20066;-66
2023/09/16 00:38:09;;;;;;;14.05;10.35;;;;;;;;;;10456279;27;20493;-66
2023/09/16 00:43:08;;;;;;;11.40;10.20;;;;;;;;;;10436826;27;20078;-67
2023/09/16 00:48:06;;;;;;;10.95;9.90;;;;;;;;;;10453256;27;20078;-66
2023/09/16 00:53:06;;;;;;;10.85;9.90;;;;;;;;;;10436699;27;20078;-66
2023/09/16 00:58:05;;;;;;;12.27;10.20;;;;;;;;;;10453094;27;20444;-66
2023/09/16 01:03:06;;;;;;;10.95;9.95;;;;;;;;;;10454444;27;20063;-66
2023/09/16 01:08:07;;;;;;;10.27;9.27;;;;;;;;;;10454231;27;20086;-66
2023/09/16 01:13:05;;;;;;;10.88;9.68;;;;;;;;;;10436962;27;20055;-66
2023/09/16 01:18:07;;;;;;;10.15;9.30;;;;;;;;;;10450629;27;20453;-66
2023/09/16 01:23:07;;;;;;;11.15;10.10;;;;;;;;;;10462284;27;20070;-66
2023/09/16 01:28:08;;;;;;;11.65;10.68;;;;;;;;;;10461092;27;20078;-66
2023/09/16 01:33:11;;;;;;;10.82;9.93;;;;;;;;;;10460725;27;20089;-66
2023/09/16 01:38:13;;;;;;;10.90;9.80;;;;;;;;;;10446736;27;20082;-66
2023/09/16 01:43:12;;;;;;;11.52;10.30;;;;;;;;;;10460520;27;20085;-66
2023/09/16 01:48:11;;;;;;;12.02;10.80;;;;;;;;;;10440622;27;20090;-67
2023/09/16 01:53:09;;;;;;;10.82;9.93;;;;;;;;;;10460202;27;20067;-66
2023/09/16 01:58:09;;;;;;;11.13;9.88;;;;;;;;;;10459195;27;20066;-67
2023/09/16 02:03:09;;;;;;;11.45;10.38;;;;;;;;;;10436468;27;20077;-66
2023/09/16 02:08:08;;;;;;;11.50;10.35;;;;;;;;;;10440613;27;20082;-67
2023/09/16 02:13:06;;;;;;;11.43;10.43;;;;;;;;;;10439693;27;20043;-67
2023/09/16 02:18:04;;;;;;;11.05;10.05;;;;;;;;;;10458237;27;20536;-66
2023/09/16 02:23:04;;;;;;;11.40;10.23;;;;;;;;;;10438051;27;20423;-65
2023/09/16 02:28:03;;;;;;;11.65;10.52;;;;;;;;;;10457696;27;20498;-66
2023/09/16 02:33:01;;;;;;;11.48;10.45;;;;;;;;;;10439342;27;20097;-66
2023/09/16 02:38:02;;;;;;;11.25;10.30;;;;;;;;;;10438090;27;20085;-66
2023/09/16 02:43:01;;;;;;;13.07;10.73;;;;;;;;;;10439343;27;20058;-66
2023/09/16 02:48:00;;;;;;;10.70;9.70;;;;;;;;;;10437663;27;20082;-66
2023/09/16 02:52:59;;;;;;;10.50;9.60;;;;;;;;;;10437454;27;20067;-66
2023/09/16 02:57:59;;;;;;;9.57;8.65;;;;;;;;;;10456518;27;20074;-66
2023/09/16 03:02:59;;;;;;;10.25;9.15;;;;;;;;;;10437177;27;20479;-66
2023/09/16 03:07:57;;;;;;;11.60;10.55;;;;;;;;;;10445708;27;20407;-66
2023/09/16 03:12:56;;;;;;;10.57;9.68;;;;;;;;;;10446735;27;20047;-65
2023/09/16 03:17:54;;;;;;;11.65;10.52;;;;;;;;;;10437988;27;20078;-66
2023/09/16 03:23:08;;;;;;;10.60;9.60;;;;;;;;;;10437969;27;20082;-66
2023/09/16 03:28:06;;;;;;;12.18;11.10;;;;;;;;;;10437142;27;20087;-66
2023/09/16 03:33:05;;;;;;;10.40;9.50;;;;;;;;;;10449407;27;20097;-66
2023/09/16 03:38:04;;;;;;;11.18;9.13;;;;;;;;;;10439760;27;20079;-66
2023/09/16 03:43:05;;;;;;;10.65;9.55;;;;;;;;;;10437978;27;20530;-66
2023/09/16 03:48:03;;;;;;;12.32;11.13;;;;;;;;;;10442741;27;20073;-66
2023/09/16 03:53:05;;;;;;;13.23;10.35;;;;;;;;;;10437402;27;20496;-67
2023/09/16 03:58:13;;;;;;;13.80;10.75;;;;;;;;;;10438344;27;20039;-67
2023/09/16 04:03:11;;;;;;;11.55;10.55;;;;;;;;;;10452214;27;20067;-67
2023/09/16 04:08:09;;;;;;;11.65;10.38;;;;;;;;;;10452175;27;20067;-66
2023/09/16 04:13:09;;;;;;;12.93;11.82;;;;;;;;;;10444266;27;20043;-65
2023/09/16 04:18:09;;;;;;;12.20;11.02;;;;;;;;;;10436690;27;20483;-67
2023/09/16 04:23:08;;;;;;;11.77;10.85;;;;;;;;;;10451836;27;20070;-65
2023/09/16 04:28:07;;;;;;;13.13;11.80;;;;;;;;;;10454083;27;20082;-65
2023/09/16 04:33:05;;;;;;;12.93;11.70;;;;;;;;;;10436227;27;20071;-67
2023/09/16 04:38:07;;;;;;;12.27;11.27;;;;;;;;;;10436425;27;20075;-66
2023/09/16 04:43:06;;;;;;;12.68;11.38;;;;;;;;;;10435185;27;20050;-65
2023/09/16 04:48:05;;;;;;;13.57;11.00;;;;;;;;;;10438597;27;20086;-66
2023/09/16 04:53:04;;;;;;;12.75;11.55;;;;;;;;;;10441920;27;20083;-68
2023/09/16 04:58:03;;;;;;;13.25;12.05;;;;;;;;;;10439995;27;20534;-65
2023/09/16 05:03:04;;;;;;;14.00;12.70;;;;;;;;;;10450414;27;20090;-65
2023/09/16 05:08:02;;;;;;;13.27;12.07;;;;;;;;;;10451239;27;20506;-65
2023/09/16 05:13:01;;;;;;;12.95;11.60;;;;;;;;;;10457292;27;20062;-67
2023/09/16 05:18:01;;;;;;;13.60;12.40;;;;;;;;;;10459160;27;20113;-65
2023/09/16 05:23:04;;;;;;;12.85;11.80;;;;;;;;;;10440406;27;20073;-67
2023/09/16 05:28:02;;;;;;;12.48;11.32;;;;;;;;;;10457716;27;20079;-65
2023/09/16 05:33:02;;;;;;;11.52;10.50;;;;;;;;;;10444126;27;20078;-67
2023/09/16 05:38:01;;;;;;;12.90;11.35;;;;;;;;;;10442442;27;20488;-67
2023/09/16 05:42:59;;;;;;;12.90;11.82;;;;;;;;;;10439509;27;20042;-66
2023/09/16 05:48:02;;;;;;;12.00;10.73;;;;;;;;;;10435881;27;20082;-66
2023/09/16 05:53:04;;;;;;;13.00;11.55;;;;;;;;;;10445186;27;20081;-65
2023/09/16 05:58:06;;;;;;;13.45;12.25;;;;;;;;;;10459594;27;20067;-65
2023/09/16 06:03:05;;;;;;;12.88;11.00;;;;;;;;;;10436450;27;20081;-65
2023/09/16 06:08:05;;;;;;;11.95;10.52;;;;;;;;;;10441262;27;20137;-67
2023/09/16 06:13:05;;;;;;;11.70;10.60;;;;;;;;;;10439735;27;20089;-65
2023/09/16 06:18:06;;;;;;;11.23;10.23;;;;;;;;;;10461492;27;20471;-66
2023/09/16 06:23:06;;;;;;;11.95;10.80;;;;;;;;;;10452096;27;20572;-65
2023/09/16 06:28:04;;;;;;;12.02;10.98;;;;;;;;;;10440805;27;20585;-66
2023/09/16 06:33:05;;;;;;;10.38;9.48;;;;;;;;;;10436447;27;20082;-65
2023/09/16 06:38:04;;;;;;;10.70;9.70;;;;;;;;;;10437816;27;20086;-66
2023/09/16 06:43:04;;;;;;;11.27;10.25;;;;;;;;;;10433699;27;20066;-67
2023/09/16 06:48:09;;;;;;;10.80;9.90;;;;;;;;;;10440401;27;20087;-67
2023/09/16 06:53:07;;;;;;;10.98;9.90;;;;;;;;;;10456187;27;20070;-67
2023/09/16 06:58:07;;;;;;;12.82;10.52;;;;;;;;;;10460023;27;20069;-67
2023/09/16 07:03:23;;;;;;;11.43;8.77;;;;;;;;;;10436755;27;20144;-67
2023/09/16 07:08:22;;;;;;;10.35;9.55;;;;;;;;;;10455269;27;20079;-67
2023/09/16 07:13:22;;;;;;;16.63;10.70;;;;;;;;;;10456871;27;20070;-65
2023/09/16 07:18:21;;;;;;;11.25;10.35;;;;;;;;;;10458966;27;20075;-66
2023/09/16 07:23:19;;;;;;;11.68;10.55;;;;;;;;;;10448968;27;20062;-66
2023/09/16 07:28:17;;;;;;;13.15;10.65;;;;;;;;;;10455988;27;20503;-66
2023/09/16 07:33:17;;;;;;;16.20;11.10;;;;;;;;;;10452680;27;20077;-66
2023/09/16 07:38:15;;;;;;;12.90;11.73;;;;;;;;;;10455271;27;20516;-68
2023/09/16 07:43:16;;;;;;;16.02;14.60;;;;;;;;;;10456990;27;20537;-67
2023/09/16 07:48:17;;;;;;;13.77;11.45;;;;;;;;;;10451199;27;20086;-66
2023/09/16 07:53:16;;;;;;;13.30;12.00;;;;;;;;;;10452737;27;20089;-66
2023/09/16 07:58:15;;;;;;;13.32;12.02;;;;;;;;;;10455401;27;20066;-66
2023/09/16 08:03:13;;;;;;;13.00;11.68;;;;;;;;;;10433382;27;20078;-67
2023/09/16 08:08:12;;;;;;;13.52;12.13;;;;;;;;;;10455196;27;20062;-66
2023/09/16 08:13:11;;;;;;;12.75;11.52;;;;;;;;;;10443657;27;20482;-68
2023/09/16 08:18:10;;;;;;;13.52;12.13;;;;;;;;;;10453805;27;20062;-67
2023/09/16 08:23:09;;;;;;;15.88;13.40;;;;;;;;;;10456206;27;20063;-65
2023/09/16 08:28:07;;;;;;;16.77;12.57;;;;;;;;;;10459405;27;20078;-69
2023/09/16 08:33:07;;;;;;;11.02;9.88;;;;;;;;;;10466862;27;20082;-66
2023/09/16 08:38:07;;;;;;;12.15;10.93;;;;;;;;;;10464484;27;20523;-66
2023/09/16 08:43:11;;;;;;;11.85;10.85;;;;;;;;;;10456735;27;20058;-65
2023/09/16 08:48:13;;;;;;;12.30;10.75;;;;;;;;;;10460060;27;20093;-66
2023/09/16 08:53:12;;;;;;;13.05;11.52;;;;;;;;;;10456833;27;20082;-66
2023/09/16 08:58:13;;;;;;;13.25;11.93;;;;;;;;;;10460391;27;20464;-65
2023/09/16 09:03:13;;;;;;;13.80;12.35;;;;;;;;;;10458555;27;20070;-66
2023/09/16 09:08:12;;;;;;;16.17;11.77;;;;;;;;;;10461376;27;20094;-66
2023/09/16 09:13:12;;;;;;;13.00;11.80;;;;;;;;;;10458905;27;20143;-65
2023/09/16 09:18:11;;;;;;;13.60;11.05;;;;;;;;;;10454435;27;20078;-67
2023/09/16 09:23:11;;;;;;;12.73;11.50;;;;;;;;;;10461797;27;20149;-65
2023/09/16 09:28:10;;;;;;;16.17;12.88;;;;;;;;;;10456718;27;20074;-65
2023/09/16 09:33:13;;;;;;;14.77;11.30;;;;;;;;;;10463122;27;20496;-65
2023/09/16 09:38:14;;;;;;;13.97;11.20;;;;;;;;;;10450589;27;20066;-64
2023/09/16 09:43:13;;;;;;;14.00;12.55;;;;;;;;;;10461563;27;20074;-65
2023/09/16 09:48:11;;;;;;;14.82;13.15;;;;;;;;;;10463016;27;20082;-65
2023/09/16 09:53:10;;;;;;;14.45;11.75;;;;;;;;;;10461073;27;20074;-64
2023/09/16 09:58:10;;;;;;;11.90;10.63;;;;;;;;;;10464911;27;20073;-64
2023/09/16 10:03:09;;;;;;;13.13;11.85;;;;;;;;;;10459961;27;20081;-65
2023/09/16 10:08:07;;;;;;;14.82;13.02;;;;;;;;;;10457012;27;20075;-64
2023/09/16 10:13:05;;;;;;;14.02;12.05;;;;;;;;;;10457336;27;20066;-64
2023/09/16 10:18:06;;;;;;;13.07;10.80;;;;;;;;;;10456931;27;20507;-65
2023/09/16 10:23:05;;;;;;;17.55;12.20;;;;;;;;;;10458661;27;20089;-65
2023/09/16 10:28:04;;;;;;;14.38;10.73;;;;;;;;;;10451648;27;20078;-64
2023/09/16 10:33:04;;;;;;;20.55;18.33;;;;;;;;;;10449548;27;20117;-65
2023/09/16 10:38:05;;;;;;;17.65;15.77;;;;;;;;;;10455333;27;20070;-66
2023/09/16 10:43:03;;;;;;;17.98;12.48;;;;;;;;;;10450228;27;20073;-63
2023/09/16 10:48:02;;;;;;;19.73;14.80;;;;;;;;;;10460354;27;20074;-65
2023/09/16 10:53:03;;;;;;;20.92;13.00;;;;;;;;;;10458211;27;20139;-64
2023/09/16 10:58:07;;;;;;;13.80;12.45;;;;;;;;;;10458203;27;20499;-67
2023/09/16 11:03:06;;;;;;;14.35;12.93;;;;;;;;;;10452181;27;20066;-65
2023/09/16 11:08:05;;;;;;;13.52;12.23;;;;;;;;;;10454833;27;20546;-66
2023/09/16 11:13:06;;;;;;;16.58;11.48;;;;;;;;;;10451996;27;20100;-65
2023/09/16 11:18:04;;;;;;;15.32;10.40;;;;;;;;;;10455039;27;20531;-66
2023/09/16 11:23:05;;;;;;;15.75;10.48;;;;;;;;;;10458128;27;20074;-65
2023/09/16 11:28:07;;;;;;;11.52;10.20;;;;;;;;;;10451040;27;20081;-65
2023/09/16 11:33:25;;;;;;;11.25;10.15;;;;;;;;;;10453911;27;20082;-65
2023/09/16 11:38:24;;;;;;;11.55;10.43;;;;;;;;;;10455284;27;20070;-66
2023/09/16 11:43:23;;;;;;;13.25;11.38;;;;;;;;;;10456402;27;20066;-65
2023/09/16 11:48:22;;;;;;;13.65;10.82;;;;;;;;;;10427821;27;20070;-64
2023/09/16 11:53:25;;;;;;;14.10;10.53;;;;;;;;;;10449719;27;20098;-68
2023/09/16 11:58:26;;;;;;;12.55;11.25;;;;;;;;;;10459097;27;20118;-67
2023/09/16 12:03:24;;;;;;;20.63;13.93;;;;;;;;;;10456357;27;20118;-66
2023/09/16 12:08:24;;;;;;;12.55;9.88;;;;;;;;;;10452148;27;20067;-67
2023/09/16 12:13:33;;;;;;;12.80;10.52;;;;;;;;;;10448267;27;20082;-65
2023/09/16 12:18:31;;;;;;;13.40;10.60;;;;;;;;;;10450061;27;20074;-66
2023/09/16 12:23:32;;;;;;;10.88;9.63;;;;;;;;;;10411704;27;20067;-67
2023/09/16 12:28:34;;;;;;;11.82;8.57;;;;;;;;;;10408677;27;20448;-66
2023/09/16 12:33:44;;;;;;;10.50;9.10;;;;;;;;;;10412020;27;20071;-64
2023/09/16 12:38:42;;;;;;;21.30;9.38;;;;;;;;;;10410975;28;20077;-67
2023/09/16 12:43:43;;;;;;;14.30;8.88;;;;;;;;;;10410819;27;20511;-66
2023/09/16 12:48:43;;;;;;;10.10;8.90;;;;;;;;;;10411613;27;20481;-67
2023/09/16 12:53:42;;;;;;;11.45;7.85;;;;;;;;;;10414112;27;20077;-66
2023/09/16 12:58:42;;;;;;;14.05;7.65;;;;;;;;;;10417490;27;20071;-67
2023/09/16 13:03:41;;;;;;;9.65;8.45;;;;;;;;;;10412429;28;20511;-66
2023/09/16 13:08:39;;;;;;;10.73;7.78;;;;;;;;;;10412494;27;20075;-66
2023/09/16 13:13:38;;;;;;;15.80;8.15;;;;;;;;;;10418654;27;20506;-66
2023/09/16 13:18:39;;;;;;;13.80;9.10;;;;;;;;;;10418290;27;20082;-67
2023/09/16 13:23:48;;;;;;;14.43;8.90;;;;;;;;;;10414877;27;20075;-67
2023/09/16 13:28:55;;;;;;;13.32;9.02;;;;;;;;;;10419893;27;20089;-69
2023/09/16 13:33:59;;;;;;;14.68;8.10;;;;;;;;;;10423844;27;20083;-67
2023/09/16 13:38:58;;;;;;;10.57;9.18;;;;;;;;;;10422577;27;20496;-67
2023/09/16 13:43:56;;;;;;;13.68;8.13;;;;;;;;;;10417679;27;20594;-67
2023/09/16 13:48:57;;;;;;;11.52;8.95;;;;;;;;;;10410295;27;20614;-67
2023/09/16 13:53:56;;;;;;;10.50;8.77;;;;;;;;;;10414465;27;20074;-66
2023/09/16 13:58:55;;;;;;;10.57;9.57;;;;;;;;;;10413493;27;20567;-67
2023/09/16 14:03:53;;;;;;;13.88;10.18;;;;;;;;;;10414538;27;20059;-67
2023/09/16 14:08:53;;;;;;;18.33;11.52;;;;;;;;;;10414535;27;20062;-67
2023/09/16 14:13:52;;;;;;;11.88;9.73;;;;;;;;;;10413352;27;20348;-68
2023/09/16 14:18:50;;;;;;;13.43;8.48;;;;;;;;;;10414788;27;20055;-66
2023/09/16 14:23:48;;;;;;;10.32;6.00;;;;;;;;;;10414301;27;20073;-66
2023/09/16 14:28:48;;;;;;;7.10;5.47;;;;;;;;;;10419737;27;20086;-65
2023/09/16 14:33:47;;;;;;;5.47;4.97;;;;;;;;;;10455795;27;20500;-65
2023/09/16 14:38:45;;;;;;;6.50;4.88;;;;;;;;;;10464796;27;20062;-67
2023/09/16 14:43:43;;;;;;;7.78;6.18;;;;;;;;;;10457248;27;20058;-65
2023/09/16 14:48:43;;;;;;;7.78;6.70;;;;;;;;;;10442912;27;20314;-65
2023/09/16 14:53:41;;;;;;;12.73;6.13;;;;;;;;;;10449409;27;20074;-66
2023/09/16 14:58:40;;;;;;;6.25;5.65;;;;;;;;;;10455377;27;20105;-67
2023/09/16 15:03:38;;;;;;;6.15;5.22;;;;;;;;;;10452359;27;20066;-67
2023/09/16 15:08:37;;;;;;;4.75;4.25;;;;;;;;;;10454093;27;20062;-66
2023/09/16 15:13:37;;;;;;;7.22;4.70;;;;;;;;;;10455753;27;20066;-67
2023/09/16 15:18:39;;;;;;;6.22;4.45;;;;;;;;;;10455544;27;20549;-66
2023/09/16 15:23:39;;;;;;;5.40;4.68;;;;;;;;;;10450822;27;20079;-65
2023/09/16 15:28:37;;;;;;;8.18;5.15;;;;;;;;;;10454697;27;20077;-66
2023/09/16 15:33:36;;;;;;;11.10;6.38;;;;;;;;;;10458186;27;20085;-67
2023/09/16 15:38:34;;;;;;;11.43;6.40;;;;;;;;;;10456786;27;20129;-67
2023/09/16 15:43:34;;;;;;;10.90;6.53;;;;;;;;;;10456310;27;20514;-66
2023/09/16 15:48:32;;;;;;;7.53;6.13;;;;;;;;;;10456438;27;20066;-66
2023/09/16 15:53:30;;;;;;;7.45;6.25;;;;;;;;;;10454517;27;20074;-67
2023/09/16 15:58:29;;;;;;;11.27;6.00;;;;;;;;;;10454002;27;20065;-66
2023/09/16 16:03:29;;;;;;;9.23;6.05;;;;;;;;;;10454422;27;20093;-66
2023/09/16 16:08:27;;;;;;;8.90;7.82;;;;;;;;;;10455121;27;20077;-66
2023/09/16 16:13:25;;;;;;;11.77;6.63;;;;;;;;;;10449860;27;20551;-67
2023/09/16 16:18:24;;;;;;;8.35;5.82;;;;;;;;;;10457715;27;20476;-66
2023/09/16 16:23:23;;;;;;;8.02;6.00;;;;;;;;;;10457163;27;20066;-66
2023/09/16 16:28:22;;;;;;;8.60;5.75;;;;;;;;;;10454220;27;20094;-66
2023/09/16 16:33:21;;;;;;;7.40;6.80;;;;;;;;;;10453709;27;20085;-65
2023/09/16 16:38:19;;;;;;;7.35;6.63;;;;;;;;;;10449678;27;20554;-65
2023/09/16 16:43:19;;;;;;;8.45;7.35;;;;;;;;;;10455748;27;20077;-66
2023/09/16 16:48:17;;;;;;;7.90;6.47;;;;;;;;;;10463780;27;20071;-65
2023/09/16 16:53:16;;;;;;;9.20;6.65;;;;;;;;;;10461581;27;20082;-66
2023/09/16 16:58:14;;;;;;;9.45;6.53;;;;;;;;;;10458723;27;20074;-66
2023/09/16 17:03:14;;;;;;;8.65;6.30;;;;;;;;;;10463744;27;20078;-66
2023/09/16 17:08:13;;;;;;;8.45;6.72;;;;;;;;;;10462516;27;20479;-66
2023/09/16 17:13:11;;;;;;;9.48;7.85;;;;;;;;;;10461930;27;20492;-66
2023/09/16 17:18:12;;;;;;;11.23;7.65;;;;;;;;;;10462968;27;20066;-66
2023/09/16 17:23:12;;;;;;;7.93;7.18;;;;;;;;;;10463870;27;20085;-66
2023/09/16 17:28:11;;;;;;;11.15;7.32;;;;;;;;;;10458469;27;20490;-66
2023/09/16 17:33:10;;;;;;;8.20;7.45;;;;;;;;;;10460411;27;20526;-65
2023/09/16 17:38:08;;;;;;;10.07;8.95;;;;;;;;;;10460795;27;20447;-66
2023/09/16 17:43:08;;;;;;;10.30;9.40;;;;;;;;;;10459456;27;20071;-66
2023/09/16 17:48:07;;;;;;;10.52;9.25;;;;;;;;;;10460377;27;20100;-66
2023/09/16 17:53:05;;;;;;;10.70;9.68;;;;;;;;;;10459220;27;20067;-67
2023/09/16 17:58:04;;;;;;;10.82;9.82;;;;;;;;;;10458637;27;20697;-66
2023/09/16 18:03:04;;;;;;;10.40;9.57;;;;;;;;;;10459242;27;20065;-67
2023/09/16 18:08:03;;;;;;;10.60;9.30;;;;;;;;;;10459572;27;20066;-66
2023/09/16 18:13:01;;;;;;;11.93;10.68;;;;;;;;;;10458685;27;20090;-66
2023/09/16 18:18:03;;;;;;;11.55;9.23;;;;;;;;;;10455978;27;20066;-67
2023/09/16 18:23:03;;;;;;;13.35;9.43;;;;;;;;;;10460778;27;20067;-66
2023/09/16 18:28:02;;;;;;;13.00;10.65;;;;;;;;;;10457473;27;20488;-66
2023/09/16 18:33:01;;;;;;;10.32;8.85;;;;;;;;;;10459133;27;20075;-67
2023/09/16 18:37:59;;;;;;;10.48;9.20;;;;;;;;;;10458021;27;20062;-67
2023/09/16 18:43:16;;;;;;;11.70;10.48;;;;;;;;;;10457713;27;20113;-67
2023/09/16 18:48:15;;;;;;;10.75;9.77;;;;;;;;;;10461641;27;20047;-66
2023/09/16 18:53:13;;;;;;;11.35;10.20;;;;;;;;;;10456607;27;20082;-66
2023/09/16 18:58:13;;;;;;;12.82;10.75;;;;;;;;;;10456173;27;20464;-66
2023/09/16 19:03:13;;;;;;;11.55;10.35;;;;;;;;;;10459096;27;20061;-66
2023/09/16 19:08:11;;;;;;;19.15;11.55;;;;;;;;;;10456247;27;20163;-66
2023/09/16 19:13:10;;;;;;;11.40;10.40;;;;;;;;;;10457651;27;20090;-65
2023/09/16 19:18:13;;;;;;;14.77;10.98;;;;;;;;;;10457931;27;20542;-65
2023/09/16 19:23:13;;;;;;;11.80;10.63;;;;;;;;;;10457587;27;20082;-66
2023/09/16 19:28:11;;;;;;;12.23;10.68;;;;;;;;;;10457970;27;20078;-67
2023/09/16 19:33:09;;;;;;;12.82;11.20;;;;;;;;;;10456118;27;20078;-67
2023/09/16 19:38:08;;;;;;;10.93;9.82;;;;;;;;;;10454427;27;20472;-67
2023/09/16 19:43:08;;;;;;;12.98;10.60;;;;;;;;;;10452438;27;20067;-67
2023/09/16 19:48:06;;;;;;;15.02;11.43;;;;;;;;;;10439117;27;20460;-67
2023/09/16 19:53:04;;;;;;;12.57;11.38;;;;;;;;;;10453457;27;20077;-66
2023/09/16 19:58:03;;;;;;;12.63;11.52;;;;;;;;;;10455581;27;20077;-67
2023/09/16 20:03:07;;;;;;;15.48;12.63;;;;;;;;;;10454472;27;20071;-66
2023/09/16 20:08:06;;;;;;;14.55;13.15;;;;;;;;;;10456425;27;20506;-66
2023/09/16 20:13:04;;;;;;;14.95;13.45;;;;;;;;;;10450636;27;20880;-65
2023/09/16 20:18:05;;;;;;;15.23;13.52;;;;;;;;;;10457670;27;20078;-66
2023/09/16 20:23:03;;;;;;;15.60;14.00;;;;;;;;;;10462762;27;20077;-66
2023/09/16 20:28:01;;;;;;;16.00;14.38;;;;;;;;;;10462189;27;20075;-67
2023/09/16 20:33:01;;;;;;;17.33;15.55;;;;;;;;;;10463878;27;20067;-66
2023/09/16 20:38:04;;;;;;;15.60;14.07;;;;;;;;;;10462882;27;20066;-66
2023/09/16 20:43:02;;;;;;;15.57;14.07;;;;;;;;;;10458654;27;20058;-67
2023/09/16 20:48:04;;;;;;;15.85;14.13;;;;;;;;;;10463270;27;20483;-66
2023/09/16 20:53:05;;;;;;;16.00;14.38;;;;;;;;;;10465047;27;20531;-66
2023/09/16 20:58:03;;;;;;;15.00;13.45;;;;;;;;;;10439971;27;20079;-67
2023/09/16 21:03:02;;;;;;;16.05;14.52;;;;;;;;;;10457513;27;20074;-66
2023/09/16 21:08:01;;;;;;;15.27;13.35;;;;;;;;;;10465459;27;20070;-67
2023/09/16 21:13:01;;;;;;;15.27;13.73;;;;;;;;;;10464960;27;20063;-66
2023/09/16 21:17:59;;;;;;;15.95;14.35;;;;;;;;;;10463008;27;20500;-66
2023/09/16 21:22:57;;;;;;;15.55;14.00;;;;;;;;;;10456724;27;20523;-65
2023/09/16 21:27:55;;;;;;;15.93;14.40;;;;;;;;;;10457250;27;20082;-66
2023/09/16 21:32:55;;;;;;;14.85;13.43;;;;;;;;;;10454276;27;20082;-66
2023/09/16 21:37:54;;;;;;;17.23;14.05;;;;;;;;;;10460869;27;20063;-66
2023/09/16 21:42:53;;;;;;;16.40;14.82;;;;;;;;;;10457188;27;20066;-64
2023/09/16 21:47:51;;;;;;;16.05;14.43;;;;;;;;;;10460850;27;20083;-67
2023/09/16 21:52:51;;;;;;;15.63;14.00;;;;;;;;;;10458371;27;20070;-66
2023/09/16 21:57:49;;;;;;;14.65;13.07;;;;;;;;;;10459468;27;20089;-66
2023/09/16 22:02:47;;;;;;;15.45;13.90;;;;;;;;;;10461607;27;20069;-67
2023/09/16 22:07:46;;;;;;;15.55;13.95;;;;;;;;;;10459107;27;20069;-66
2023/09/16 22:12:47;;;;;;;15.23;13.63;;;;;;;;;;10457516;27;20062;-66
2023/09/16 22:17:45;;;;;;;15.20;13.70;;;;;;;;;;10463742;27;20070;-66
2023/09/16 22:22:44;;;;;;;14.30;12.93;;;;;;;;;;10460064;27;20035;-66
2023/09/16 22:27:43;;;;;;;13.85;12.50;;;;;;;;;;10458841;27;20078;-66
2023/09/16 22:32:42;;;;;;;15.02;12.80;;;;;;;;;;10457034;27;20059;-66
2023/09/16 22:37:41;;;;;;;14.05;12.73;;;;;;;;;;10458890;27;20072;-66
2023/09/16 22:42:40;;;;;;;14.38;12.88;;;;;;;;;;10457022;27;20066;-65
2023/09/16 22:47:38;;;;;;;17.13;12.20;;;;;;;;;;10458859;27;20062;-65
2023/09/16 22:52:38;;;;;;;14.07;12.73;;;;;;;;;;10455887;27;20078;-66
2023/09/16 22:57:36;;;;;;;13.45;12.30;;;;;;;;;;10457533;27;21025;-67
2023/09/16 23:02:35;;;;;;;14.15;12.43;;;;;;;;;;10456929;27;20730;-66
2023/09/16 23:07:33;;;;;;;14.07;12.68;;;;;;;;;;10456869;27;20038;-67
2023/09/16 23:12:33;;;;;;;13.45;11.98;;;;;;;;;;10454900;27;20074;-67
2023/09/16 23:17:31;;;;;;;12.45;11.05;;;;;;;;;;10457659;27;20066;-66
2023/09/16 23:22:30;;;;;;;12.15;10.98;;;;;;;;;;10458516;27;20058;-66
2023/09/16 23:27:28;;;;;;;12.95;11.77;;;;;;;;;;10449693;27;20527;-67
2023/09/16 23:32:28;;;;;;;12.48;11.18;;;;;;;;;;10440818;27;20074;-66
2023/09/16 23:37:26;;;;;;;12.63;11.40;;;;;;;;;;10456013;27;20063;-67
2023/09/16 23:42:24;;;;;;;13.55;12.10;;;;;;;;;;10456079;27;20560;-66
2023/09/16 23:47:23;;;;;;;11.50;10.48;;;;;;;;;;10454914;27;20062;-67
2023/09/16 23:52:22;;;;;;;11.30;9.88;;;;;;;;;;10454899;27;20066;-67
2023/09/16 23:57:21;;;;;;;10.85;9.88;;;;;;;;;;10455080;27;20081;-66
